Time;durP1;ratioP1;P1;durP2;ratioP2;P2;SDS_P1;SDS_P2;PMS_P1;PMS_P2;Temp;Humidity;BMP_temperature;BMP_pressure;BME280_temperature;BME280_humidity;BME280_pressure;Samples;Min_cycle;Max_cycle;Signal;HPM_P1;HPM_P2
2023/10/02 00:01:17;;;;;;;;;;;;;;;;;;4978084;28;89718;-79
2023/10/02 00:03:44;;;;;;;;;;;;;;;;;;4983155;28;90597;-81
2023/10/02 00:06:10;;;;;;;;;;;;;;;;;;4985994;28;90214;-83
2023/10/02 00:08:51;;;;;;;;;;;;;;;;;;4988308;28;89392;-79
2023/10/02 00:11:35;;;;;;;;;;;;;;;;;;4983354;28;89949;-74
2023/10/02 00:14:25;;;;;;;;;;;;;;;;;;4985959;28;89757;-71
2023/10/02 00:17:04;;;;;;;;;;;;;;;;;;4971643;28;89563;-79
2023/10/02 00:19:35;;;;;;;;;;;;;;;;;;4986164;28;90724;-81
2023/10/02 00:22:05;;;;;;;;;;;;;;;;;;4981683;28;90229;-69
2023/10/02 00:24:35;;;;;;;;;;;;;;;;;;4975663;28;91701;-69
2023/10/02 00:27:02;;;;;;;;;;;;;;;;;;4979145;28;90204;-70
2023/10/02 00:29:28;;;;;;;;;;;;;;;;;;4975850;28;89439;-70
2023/10/02 00:31:54;;;;;;;;;;;;;;;;;;4971668;28;89574;-77
2023/10/02 00:34:30;;;;;;;;;;;;;;;;;;4976567;28;90141;-82
2023/10/02 00:37:05;;;;;;;;;;;;;;;;;;4976639;28;89665;-82
2023/10/02 00:39:40;;;;;;;;;;;;;;;;;;4978204;28;89535;-84
2023/10/02 00:44:53;;;;;;;;;;;;;;;;;;4985276;28;90020;-83
2023/10/02 00:47:45;;;;;;;;;;;;;;;;;;4981458;28;89690;-85
2023/10/02 00:50:13;;;;;;;;;;;;;;;;;;4980900;28;89525;-82
2023/10/02 00:52:42;;;;;;;;;;;;;;;;;;4976887;28;89757;-86
2023/10/02 00:55:09;;;;;;;;;;;;;;;;;;4980746;28;89941;-73
2023/10/02 00:57:36;;;;;;;;;;;;;;;;;;4980741;28;89679;-77
2023/10/02 01:00:07;;;;;;;;;;;;;;;;;;4972524;28;91326;-75
2023/10/02 01:02:36;;;;;;;;;;;;;;;;;;4975639;28;90281;-68
2023/10/02 01:05:03;;;;;;;;;;;;;;;;;;4979283;28;89070;-75
2023/10/02 01:07:29;;;;;;;;;;;;;;;;;;4982638;28;89625;-72
2023/10/02 01:10:07;;;;;;;;;;;;;;;;;;4974751;28;89007;-82
2023/10/02 01:12:43;;;;;;;;;;;;;;;;;;4978681;28;89507;-74
2023/10/02 01:15:11;;;;;;;;;;;;;;;;;;4977052;28;89321;-66
2023/10/02 01:17:37;;;;;;;;;;;;;;;;;;4978018;28;90391;-71
2023/10/02 01:20:09;;;;;;;;;;;;;;;;;;4977023;28;89563;-78
2023/10/02 01:22:44;;;;;;;;;;;;;;;;;;4975611;28;89500;-83
2023/10/02 01:25:12;;;;;;;;;;;;;;;;;;4973082;28;89322;-73
2023/10/02 01:27:41;;;;;;;;;;;;;;;;;;4975017;28;90101;-66
2023/10/02 01:30:21;;;;;;;;;;;;;;;;;;4982101;28;89499;-66
2023/10/02 01:33:11;;;;;;;;;;;;;;;;;;4974996;28;89635;-74
2023/10/02 01:35:37;;;;;;;;;;;;;;;;;;4973636;28;89728;-71
2023/10/02 01:38:06;;;;;;;;;;;;;;;;;;4983173;28;90234;-79
2023/10/02 01:40:35;;;;;;;;;;;;;;;;;;4976834;28;90025;-83
2023/10/02 01:43:11;;;;;;;;;;;;;;;;;;4975779;28;89590;-79
2023/10/02 01:45:42;;;;;;;;;;;;;;;;;;4969437;28;89887;-86
2023/10/02 01:48:08;;;;;;;;;;;;;;;;;;4978214;28;89376;-77
2023/10/02 01:50:35;;;;;;;;;;;;;;;;;;4984729;28;90304;-82
2023/10/02 01:53:05;;;;;;;;;;;;;;;;;;4980356;28;90414;-85
2023/10/02 01:55:31;;;;;;;;;;;;;;;;;;4977212;28;90259;-84
2023/10/02 01:57:56;;;;;;;;;;;;;;;;;;4980292;28;90576;-85
2023/10/02 02:00:24;;;;;;;;;;;;;;;;;;4974643;28;89503;-75
2023/10/02 02:03:14;;;;;;;;;;;;;;;;;;4976938;28;91725;-72
2023/10/02 02:05:34;;;;;;;;;;;;;;;;;;4976118;28;91522;-66
2023/10/02 02:08:21;;;;;;;;;;;;;;;;;;4976725;28;90081;-68
2023/10/02 02:10:46;;;;;;;;;;;;;;;;;;4975137;28;90372;-71
2023/10/02 02:13:11;;;;;;;;;;;;;;;;;;4984990;28;89142;-75
2023/10/02 02:15:38;;;;;;;;;;;;;;;;;;4984073;28;91463;-75
2023/10/02 02:18:04;;;;;;;;;;;;;;;;;;4980461;28;91564;-72
2023/10/02 02:20:57;;;;;;;;;;;;;;;;;;4982156;28;90592;-78
2023/10/02 02:23:22;;;;;;;;;;;;;;;;;;4974186;28;90336;-74
2023/10/02 02:25:48;;;;;;;;;;;;;;;;;;4977840;28;89129;-76
2023/10/02 02:28:13;;;;;;;;;;;;;;;;;;4978011;28;89906;-80
2023/10/02 02:30:40;;;;;;;;;;;;;;;;;;4971306;28;89269;-74
2023/10/02 02:33:08;;;;;;;;;;;;;;;;;;4974262;28;89451;-79
2023/10/02 02:35:39;;;;;;;;;;;;;;;;;;4977889;28;89684;-73
2023/10/02 02:38:13;;;;;;;;;;;;;;;;;;4980920;28;89522;-84
2023/10/02 02:40:40;;;;;;;;;;;;;;;;;;4979256;28;89892;-77
2023/10/02 02:43:18;;;;;;;;;;;;;;;;;;4970228;28;92062;-81
2023/10/02 02:45:45;;;;;;;;;;;;;;;;;;4977869;28;90005;-86
2023/10/02 02:48:10;;;;;;;;;;;;;;;;;;4975035;28;90483;-85
2023/10/02 02:50:42;;;;;;;;;;;;;;;;;;4976983;28;89878;-75
2023/10/02 02:53:21;;;;;;;;;;;;;;;;;;4980195;28;89952;-82
2023/10/02 02:56:18;;;;;;;;;;;;;;;;;;4976043;28;89838;-84
2023/10/02 02:58:48;;;;;;;;;;;;;;;;;;4978575;28;89335;-84
2023/10/02 03:01:21;;;;;;;;;;;;;;;;;;4975636;28;90170;-84
2023/10/02 03:03:49;;;;;;;;;;;;;;;;;;4977745;28;90163;-84
2023/10/02 03:06:22;;;;;;;;;;;;;;;;;;4977730;28;89646;-72
2023/10/02 03:08:47;;;;;;;;;;;;;;;;;;4981226;28;90622;-75
2023/10/02 03:11:16;;;;;;;;;;;;;;;;;;4974129;28;89638;-70
2023/10/02 03:13:41;;;;;;;;;;;;;;;;;;4973553;28;89300;-68
2023/10/02 03:16:13;;;;;;;;;;;;;;;;;;4984316;28;90006;-68
2023/10/02 03:18:43;;;;;;;;;;;;;;;;;;4976783;28;89500;-68
2023/10/02 03:21:14;;;;;;;;;;;;;;;;;;4979839;28;90861;-69
2023/10/02 03:23:43;;;;;;;;;;;;;;;;;;4976947;28;90205;-67
2023/10/02 03:26:27;;;;;;;;;;;;;;;;;;4975086;28;89392;-81
2023/10/02 03:29:00;;;;;;;;;;;;;;;;;;4976140;28;90698;-70
2023/10/02 03:31:34;;;;;;;;;;;;;;;;;;4976450;28;89265;-78
2023/10/02 03:34:25;;;;;;;;;;;;;;;;;;4979035;28;89520;-80
2023/10/02 03:36:52;;;;;;;;;;;;;;;;;;4977688;28;90608;-68
2023/10/02 03:39:24;;;;;;;;;;;;;;;;;;4977765;28;90412;-71
2023/10/02 03:41:55;;;;;;;;;;;;;;;;;;4974463;28;89837;-73
2023/10/02 03:44:22;;;;;;;;;;;;;;;;;;4982916;28;89790;-67
2023/10/02 03:46:48;;;;;;;;;;;;;;;;;;4976407;28;89472;-70
2023/10/02 03:49:15;;;;;;;;;;;;;;;;;;4973117;28;90612;-68
2023/10/02 03:51:40;;;;;;;;;;;;;;;;;;4976620;28;90035;-73
2023/10/02 03:54:17;;;;;;;;;;;;;;;;;;4976278;28;89681;-72
2023/10/02 03:56:49;;;;;;;;;;;;;;;;;;4967326;28;91469;-76
2023/10/02 03:59:21;;;;;;;;;;;;;;;;;;4975544;28;89542;-77
2023/10/02 04:01:47;;;;;;;;;;;;;;;;;;4974897;28;89468;-77
2023/10/02 04:06:42;;;;;;;;;;;;;;;;;;4973402;28;89738;-84
2023/10/02 04:11:42;;;;;;;;;;;;;;;;;;4976707;28;91104;-73
2023/10/02 04:14:17;;;;;;;;;;;;;;;;;;4974073;28;90088;-72
2023/10/02 04:16:52;;;;;;;;;;;;;;;;;;4973966;28;90913;-67
2023/10/02 04:19:23;;;;;;;;;;;;;;;;;;4974353;28;90837;-73
2023/10/02 04:21:52;;;;;;;;;;;;;;;;;;4976449;28;89308;-74
2023/10/02 04:24:23;;;;;;;;;;;;;;;;;;4974302;28;92128;-66
2023/10/02 04:26:53;;;;;;;;;;;;;;;;;;4994654;28;89049;-67
2023/10/02 04:34:36;;;;;;;;;;;;;;;;;;4975903;28;89563;-85
2023/10/02 04:37:19;;;;;;;;;;;;;;;;;;4979722;28;90312;-81
2023/10/02 04:42:25;;;;;;;;;;;;;;;;;;4979372;28;89787;-84
2023/10/02 04:45:20;;;;;;;;;;;;;;;;;;4974915;28;89791;-72
2023/10/02 04:47:40;;;;;;;;;;;;;;;;;;4971794;28;90679;-76
2023/10/02 04:55:25;;;;;;;;;;;;;;;;;;4973877;28;89184;-75
2023/10/02 04:57:55;;;;;;;;;;;;;;;;;;4974496;28;90941;-74
2023/10/02 05:00:33;;;;;;;;;;;;;;;;;;4973657;28;90229;-70
2023/10/02 05:03:09;;;;;;;;;;;;;;;;;;4970280;28;89151;-74
2023/10/02 05:05:38;;;;;;;;;;;;;;;;;;4976673;28;90269;-83
2023/10/02 05:08:03;;;;;;;;;;;;;;;;;;4978876;28;89757;-87
2023/10/02 05:10:29;;;;;;;;;;;;;;;;;;4974122;28;89507;-76
2023/10/02 05:12:54;;;;;;;;;;;;;;;;;;4977654;28;89548;-85
2023/10/02 05:15:20;;;;;;;;;;;;;;;;;;4976262;28;89213;-83
2023/10/02 05:17:47;;;;;;;;;;;;;;;;;;4980041;28;90860;-73
2023/10/02 05:20:15;;;;;;;;;;;;;;;;;;4976580;28;89785;-76
2023/10/02 05:22:42;;;;;;;;;;;;;;;;;;4971818;28;89124;-67
2023/10/02 05:25:08;;;;;;;;;;;;;;;;;;4976568;28;89663;-68
2023/10/02 05:27:36;;;;;;;;;;;;;;;;;;4971651;28;89213;-67
2023/10/02 05:30:17;;;;;;;;;;;;;;;;;;4969904;28;90853;-66
2023/10/02 05:32:43;;;;;;;;;;;;;;;;;;4979099;28;92374;-68
2023/10/02 05:37:40;;;;;;;;;;;;;;;;;;4975895;28;89316;-69
2023/10/02 05:51:12;;;;;;;;;;;;;;;;;;4992866;28;89832;-74
2023/10/02 05:53:38;;;;;;;;;;;;;;;;;;4973669;28;90960;-76
2023/10/02 05:58:36;;;;;;;;;;;;;;;;;;4972452;28;89481;-71
2023/10/02 06:01:05;;;;;;;;;;;;;;;;;;4971003;28;89697;-68
2023/10/02 06:03:34;;;;;;;;;;;;;;;;;;4974712;28;89452;-69
2023/10/02 06:06:18;;;;;;;;;;;;;;;;;;4972417;28;89458;-74
2023/10/02 06:08:55;;;;;;;;;;;;;;;;;;4976639;28;89143;-74
2023/10/02 06:11:27;;;;;;;;;;;;;;;;;;4974871;28;90462;-76
2023/10/02 06:13:54;;;;;;;;;;;;;;;;;;4980050;28;91788;-78
2023/10/02 06:16:22;;;;;;;;;;;;;;;;;;4974774;28;90374;-78
2023/10/02 06:19:00;;;;;;;;;;;;;;;;;;4979294;28;89588;-78
2023/10/02 06:21:25;;;;;;;;;;;;;;;;;;4971256;28;89563;-78
2023/10/02 06:23:52;;;;;;;;;;;;;;;;;;4972847;28;89503;-67
2023/10/02 06:26:17;;;;;;;;;;;;;;;;;;4974883;28;91302;-68
2023/10/02 06:28:47;;;;;;;;;;;;;;;;;;4973118;28;91047;-70
2023/10/02 06:31:15;;;;;;;;;;;;;;;;;;4971457;28;90671;-65
2023/10/02 06:33:40;;;;;;;;;;;;;;;;;;4976187;28;90707;-67
2023/10/02 06:36:08;;;;;;;;;;;;;;;;;;4968095;28;89962;-67
2023/10/02 06:38:33;;;;;;;;;;;;;;;;;;4970057;28;90234;-70
2023/10/02 06:40:59;;;;;;;;;;;;;;;;;;4978580;28;89571;-71
2023/10/02 06:43:30;;;;;;;;;;;;;;;;;;4972829;28;89131;-76
2023/10/02 06:46:06;;;;;;;;;;;;;;;;;;4973650;28;89974;-73
2023/10/02 06:48:43;;;;;;;;;;;;;;;;;;4974324;28;90139;-72
2023/10/02 06:51:10;;;;;;;;;;;;;;;;;;4969893;28;89422;-71
2023/10/02 06:53:40;;;;;;;;;;;;;;;;;;4968024;28;89384;-70
2023/10/02 06:56:10;;;;;;;;;;;;;;;;;;4973771;28;89480;-77
2023/10/02 06:58:46;;;;;;;;;;;;;;;;;;4974319;28;88948;-69
2023/10/02 07:01:12;;;;;;;;;;;;;;;;;;4970908;28;89500;-76
2023/10/02 07:03:39;;;;;;;;;;;;;;;;;;4976700;28;90053;-75
2023/10/02 07:06:07;;;;;;;;;;;;;;;;;;4971857;28;90567;-76
2023/10/02 07:08:34;;;;;;;;;;;;;;;;;;4975641;28;90750;-69
2023/10/02 07:11:09;;;;;;;;;;;;;;;;;;4976198;28;89116;-67
2023/10/02 07:13:34;;;;;;;;;;;;;;;;;;4975923;28;91376;-67
2023/10/02 07:16:00;;;;;;;;;;;;;;;;;;4973239;28;90582;-76
2023/10/02 07:18:36;;;;;;;;;;;;;;;;;;4968494;28;89511;-73
2023/10/02 07:21:07;;;;;;;;;;;;;;;;;;4977858;28;90726;-71
2023/10/02 07:23:37;;;;;;;;;;;;;;;;;;4975650;28;90913;-73
2023/10/02 07:26:04;;;;;;;;;;;;;;;;;;4973925;28;89739;-73
2023/10/02 07:28:29;;;;;;;;;;;;;;;;;;4974871;28;90723;-75
2023/10/02 07:30:56;;;;;;;;;;;;;;;;;;4974994;28;90128;-73
2023/10/02 07:33:22;;;;;;;;;;;;;;;;;;4975123;28;90657;-72
2023/10/02 07:35:54;;;;;;;;;;;;;;;;;;4976353;28;90142;-73
2023/10/02 07:38:29;;;;;;;;;;;;;;;;;;4978006;28;89637;-75
2023/10/02 07:40:57;;;;;;;;;;;;;;;;;;4976439;28;90073;-76
2023/10/02 07:43:23;;;;;;;;;;;;;;;;;;4976555;28;89789;-74
2023/10/02 07:46:01;;;;;;;;;;;;;;;;;;4975247;28;89497;-73
2023/10/02 07:48:36;;;;;;;;;;;;;;;;;;4983519;28;91011;-74
2023/10/02 07:51:01;;;;;;;;;;;;;;;;;;4976211;28;89133;-74
2023/10/02 07:53:38;;;;;;;;;;;;;;;;;;4979159;28;90651;-75
2023/10/02 07:56:24;;;;;;;;;;;;;;;;;;4981978;28;90112;-75
2023/10/02 07:58:55;;;;;;;;;;;;;;;;;;4981647;28;89514;-70
2023/10/02 08:01:23;;;;;;;;;;;;;;;;;;4974986;28;89887;-74
2023/10/02 08:03:49;;;;;;;;;;;;;;;;;;4977986;28;89901;-75
2023/10/02 08:06:33;;;;;;;;;;;;;;;;;;4975178;28;89705;-75
2023/10/02 08:11:54;;;;;;;;;;;;;;;;;;4977208;28;90357;-73
2023/10/02 08:14:38;;;;;;;;;;;;;;;;;;4972303;28;91394;-72
2023/10/02 08:17:22;;;;;;;;;;;;;;;;;;4977060;28;90251;-70
2023/10/02 08:19:54;;;;;;;;;;;;;;;;;;4974605;28;89247;-75
2023/10/02 08:22:23;;;;;;;;;;;;;;;;;;4975829;28;90670;-69
2023/10/02 08:24:49;;;;;;;;;;;;;;;;;;4976086;28;89665;-68
2023/10/02 08:27:14;;;;;;;;;;;;;;;;;;4978816;28;89791;-74
2023/10/02 08:29:41;;;;;;;;;;;;;;;;;;4972155;28;90274;-73
2023/10/02 08:32:06;;;;;;;;;;;;;;;;;;4978546;28;90335;-72
2023/10/02 08:34:31;;;;;;;;;;;;;;;;;;4978971;28;89867;-73
2023/10/02 08:37:07;;;;;;;;;;;;;;;;;;4976332;28;89518;-73
2023/10/02 08:39:33;;;;;;;;;;;;;;;;;;4972893;28;89151;-74
2023/10/02 08:41:59;;;;;;;;;;;;;;;;;;4978514;28;89495;-75
2023/10/02 08:44:24;;;;;;;;;;;;;;;;;;4972367;28;89329;-72
2023/10/02 08:46:50;;;;;;;;;;;;;;;;;;4975471;28;89984;-73
2023/10/02 08:49:16;;;;;;;;;;;;;;;;;;4978608;28;90170;-75
2023/10/02 08:51:51;;;;;;;;;;;;;;;;;;4976555;28;90071;-79
2023/10/02 08:54:27;;;;;;;;;;;;;;;;;;4980952;28;89492;-69
2023/10/02 08:57:06;;;;;;;;;;;;;;;;;;4977761;28;90002;-70
2023/10/02 08:59:38;;;;;;;;;;;;;;;;;;4975232;28;88998;-74
2023/10/02 09:02:16;;;;;;;;;;;;;;;;;;4978411;28;90682;-73
2023/10/02 09:04:55;;;;;;;;;;;;;;;;;;4974976;28;89165;-72
2023/10/02 09:08:00;;;;;;;;;;;;;;;;;;4974409;28;89406;-72
2023/10/02 09:10:26;;;;;;;;;;;;;;;;;;4980864;28;90925;-73
2023/10/02 09:13:14;;;;;;;;;;;;;;;;;;4980781;28;89890;-71
2023/10/02 09:15:44;;;;;;;;;;;;;;;;;;4973579;28;89072;-70
2023/10/02 09:18:22;;;;;;;;;;;;;;;;;;4974505;28;90769;-71
2023/10/02 09:20:56;;;;;;;;;;;;;;;;;;4972729;28;89610;-68
2023/10/02 09:23:22;;;;;;;;;;;;;;;;;;4971941;28;89513;-67
2023/10/02 09:26:16;;;;;;;;;;;;;;;;;;4977952;28;89843;-67
2023/10/02 09:28:42;;;;;;;;;;;;;;;;;;4978077;28;89706;-73
2023/10/02 09:31:14;;;;;;;;;;;;;;;;;;4970429;28;91243;-81
2023/10/02 09:33:39;;;;;;;;;;;;;;;;;;4973862;28;90128;-73
2023/10/02 09:36:06;;;;;;;;;;;;;;;;;;4970806;28;89513;-78
2023/10/02 09:38:32;;;;;;;;;;;;;;;;;;4971198;28;90731;-79
2023/10/02 09:41:11;;;;;;;;;;;;;;;;;;4975508;28;91362;-72
2023/10/02 09:43:37;;;;;;;;;;;;;;;;;;4978941;28;90671;-80
2023/10/02 09:46:06;;;;;;;;;;;;;;;;;;4974932;28;89507;-78
2023/10/02 09:51:27;;;;;;;;;;;;;;;;;;4972726;28;90205;-79
2023/10/02 09:54:04;;;;;;;;;;;;;;;;;;4979850;28;89221;-80
2023/10/02 09:56:51;;;;;;;;;;;;;;;;;;4972586;28;89604;-81
2023/10/02 09:59:17;;;;;;;;;;;;;;;;;;4974272;28;90670;-78
2023/10/02 10:02:07;;;;;;;;;;;;;;;;;;4975362;28;89303;-74
2023/10/02 10:07:46;;;;;;;;;;;;;;;;;;4970859;28;90300;-80
2023/10/02 10:10:27;;;;;;;;;;;;;;;;;;4972206;28;90227;-82
2023/10/02 10:12:56;;;;;;;;;;;;;;;;;;4977602;28;89759;-81
2023/10/02 10:15:31;;;;;;;;;;;;;;;;;;4971354;28;90297;-78
2023/10/02 10:17:57;;;;;;;;;;;;;;;;;;4974561;28;89924;-85
2023/10/02 10:20:25;;;;;;;;;;;;;;;;;;4974753;28;89696;-82
2023/10/02 10:22:56;;;;;;;;;;;;;;;;;;4976702;28;90240;-86
2023/10/02 10:28:00;;;;;;;;;;;;;;;;;;4970034;28;89705;-83
2023/10/02 10:30:27;;;;;;;;;;;;;;;;;;4975019;28;89421;-83
2023/10/02 10:35:49;;;;;;;;;;;;;;;;;;4973246;28;91904;-83
2023/10/02 10:38:26;;;;;;;;;;;;;;;;;;4973982;28;89445;-81
2023/10/02 10:40:54;;;;;;;;;;;;;;;;;;4972113;28;89529;-81
2023/10/02 10:43:26;;;;;;;;;;;;;;;;;;4972578;28;90310;-84
2023/10/02 10:45:54;;;;;;;;;;;;;;;;;;4971840;28;89504;-70
2023/10/02 10:48:23;;;;;;;;;;;;;;;;;;4974969;28;90977;-77
2023/10/02 10:51:06;;;;;;;;;;;;;;;;;;4973515;28;90355;-74
2023/10/02 10:53:39;;;;;;;;;;;;;;;;;;4974069;28;90780;-70
2023/10/02 10:56:17;;;;;;;;;;;;;;;;;;4977146;28;89282;-69
2023/10/02 10:58:43;;;;;;;;;;;;;;;;;;4973111;28;89682;-73
2023/10/02 11:01:16;;;;;;;;;;;;;;;;;;4971233;28;89731;-81
2023/10/02 11:03:41;;;;;;;;;;;;;;;;;;4972777;28;89420;-83
2023/10/02 11:06:09;;;;;;;;;;;;;;;;;;4974234;28;91390;-82
2023/10/02 11:08:37;;;;;;;;;;;;;;;;;;4972162;28;89531;-84
2023/10/02 11:11:19;;;;;;;;;;;;;;;;;;4980360;28;90288;-79
2023/10/02 11:13:53;;;;;;;;;;;;;;;;;;4974586;28;89346;-73
2023/10/02 11:16:30;;;;;;;;;;;;;;;;;;4976439;28;90338;-76
2023/10/02 11:19:10;;;;;;;;;;;;;;;;;;4976668;28;90145;-69
2023/10/02 11:21:45;;;;;;;;;;;;;;;;;;4976682;28;89695;-74
2023/10/02 11:24:20;;;;;;;;;;;;;;;;;;4976251;28;91484;-72
2023/10/02 11:26:46;;;;;;;;;;;;;;;;;;4974411;28;89226;-73
2023/10/02 11:29:20;;;;;;;;;;;;;;;;;;4979882;28;89736;-69
2023/10/02 11:31:56;;;;;;;;;;;;;;;;;;4976385;28;89434;-69
2023/10/02 11:34:21;;;;;;;;;;;;;;;;;;4977995;28;89535;-75
2023/10/02 11:36:53;;;;;;;;;;;;;;;;;;4976079;28;90121;-68
2023/10/02 11:39:26;;;;;;;;;;;;;;;;;;4973336;28;90291;-73
2023/10/02 11:41:52;;;;;;;;;;;;;;;;;;4978403;28;90737;-69
2023/10/02 11:44:17;;;;;;;;;;;;;;;;;;4977831;28;89876;-79
2023/10/02 11:46:46;;;;;;;;;;;;;;;;;;4981640;28;90051;-73
2023/10/02 11:49:12;;;;;;;;;;;;;;;;;;4981023;28;90702;-81
2023/10/02 11:51:38;;;;;;;;;;;;;;;;;;4980113;28;89390;-81
2023/10/02 11:54:08;;;;;;;;;;;;;;;;;;4977169;28;89107;-79
2023/10/02 11:56:34;;;;;;;;;;;;;;;;;;4975244;28;90681;-76
2023/10/02 11:58:59;;;;;;;;;;;;;;;;;;4974214;28;89551;-80
2023/10/02 12:01:26;;;;;;;;;;;;;;;;;;4977006;28;90623;-81
2023/10/02 12:03:56;;;;;;;;;;;;;;;;;;4977057;28;89751;-81
2023/10/02 12:06:23;;;;;;;;;;;;;;;;;;4975804;28;89041;-75
2023/10/02 12:08:49;;;;;;;;;;;;;;;;;;4977237;28;92686;-74
2023/10/02 12:11:14;;;;;;;;;;;;;;;;;;4976939;28;90173;-78
2023/10/02 12:13:40;;;;;;;;;;;;;;;;;;4979108;28;90002;-81
2023/10/02 12:16:07;;;;;;;;;;;;;;;;;;4974315;28;89700;-80
2023/10/02 12:18:34;;;;;;;;;;;;;;;;;;4976898;28;89472;-79
2023/10/02 12:20:59;;;;;;;;;;;;;;;;;;4974399;28;90765;-81
2023/10/02 12:23:25;;;;;;;;;;;;;;;;;;4977165;28;89553;-74
2023/10/02 12:25:50;;;;;;;;;;;;;;;;;;4977501;28;89670;-74
2023/10/02 12:28:15;;;;;;;;;;;;;;;;;;4976005;28;89507;-73
2023/10/02 12:30:41;;;;;;;;;;;;;;;;;;4977073;28;90769;-72
2023/10/02 12:33:06;;;;;;;;;;;;;;;;;;4974921;28;89120;-71
2023/10/02 12:35:32;;;;;;;;;;;;;;;;;;4975675;28;89417;-71
2023/10/02 12:37:58;;;;;;;;;;;;;;;;;;4979759;28;90266;-74
2023/10/02 12:40:31;;;;;;;;;;;;;;;;;;4973522;28;89496;-75
2023/10/02 12:42:57;;;;;;;;;;;;;;;;;;4975693;28;90069;-72
2023/10/02 12:45:22;;;;;;;;;;;;;;;;;;4974123;28;90110;-70
2023/10/02 12:47:47;;;;;;;;;;;;;;;;;;4980069;28;89760;-72
2023/10/02 12:50:12;;;;;;;;;;;;;;;;;;4977676;28;90324;-74
2023/10/02 12:52:38;;;;;;;;;;;;;;;;;;4971365;28;89320;-73
2023/10/02 12:55:05;;;;;;;;;;;;;;;;;;4977434;28;90948;-74
2023/10/02 12:57:30;;;;;;;;;;;;;;;;;;4974750;28;91140;-70
2023/10/02 12:59:55;;;;;;;;;;;;;;;;;;4978223;28;89714;-74
2023/10/02 13:02:21;;;;;;;;;;;;;;;;;;4977509;28;90205;-73
2023/10/02 13:04:46;;;;;;;;;;;;;;;;;;4976036;28;89128;-77
2023/10/02 13:07:11;;;;;;;;;;;;;;;;;;4972678;28;89838;-78
2023/10/02 13:09:36;;;;;;;;;;;;;;;;;;4973274;28;89118;-76
2023/10/02 13:12:02;;;;;;;;;;;;;;;;;;4975550;28;89538;-80
2023/10/02 13:14:27;;;;;;;;;;;;;;;;;;4975710;28;91423;-73
2023/10/02 13:16:53;;;;;;;;;;;;;;;;;;4977950;28;89857;-79
2023/10/02 13:19:18;;;;;;;;;;;;;;;;;;4978139;28;90357;-77
2023/10/02 13:21:44;;;;;;;;;;;;;;;;;;4978103;28;89564;-79
2023/10/02 13:24:17;;;;;;;;;;;;;;;;;;4977406;28;90744;-77
2023/10/02 13:26:43;;;;;;;;;;;;;;;;;;4970871;28;91234;-78
2023/10/02 13:29:08;;;;;;;;;;;;;;;;;;4971642;28;89695;-80
2023/10/02 13:31:33;;;;;;;;;;;;;;;;;;4977981;28;89635;-78
2023/10/02 13:33:58;;;;;;;;;;;;;;;;;;4973129;28;91853;-79
2023/10/02 13:36:25;;;;;;;;;;;;;;;;;;4974567;28;89131;-80
2023/10/02 13:38:56;;;;;;;;;;;;;;;;;;4976330;28;89429;-76
2023/10/02 13:41:21;;;;;;;;;;;;;;;;;;4976913;28;90837;-76
2023/10/02 13:43:52;;;;;;;;;;;;;;;;;;4972288;28;89524;-79
2023/10/02 13:46:20;;;;;;;;;;;;;;;;;;4976288;28;90716;-79
2023/10/02 13:48:45;;;;;;;;;;;;;;;;;;4979533;28;90467;-80
2023/10/02 13:51:12;;;;;;;;;;;;;;;;;;4976750;28;89451;-76
2023/10/02 13:53:38;;;;;;;;;;;;;;;;;;4975506;28;89817;-71
2023/10/02 13:56:08;;;;;;;;;;;;;;;;;;4975720;28;89564;-73
2023/10/02 13:58:34;;;;;;;;;;;;;;;;;;4970847;28;89928;-70
2023/10/02 14:01:03;;;;;;;;;;;;;;;;;;4976398;28;90675;-81
2023/10/02 14:03:29;;;;;;;;;;;;;;;;;;4973346;28;89553;-77
2023/10/02 14:05:55;;;;;;;;;;;;;;;;;;4980630;28;89617;-72
2023/10/02 14:08:20;;;;;;;;;;;;;;;;;;4976609;28;90466;-75
2023/10/02 14:10:47;;;;;;;;;;;;;;;;;;4976522;28;89619;-79
2023/10/02 14:13:13;;;;;;;;;;;;;;;;;;4975638;28;89509;-79
2023/10/02 14:15:39;;;;;;;;;;;;;;;;;;4975764;28;90558;-74
2023/10/02 14:18:04;;;;;;;;;;;;;;;;;;4975458;28;89356;-79
2023/10/02 14:20:30;;;;;;;;;;;;;;;;;;4972668;28;89723;-77
2023/10/02 14:22:55;;;;;;;;;;;;;;;;;;4972556;28;90023;-77
2023/10/02 14:25:23;;;;;;;;;;;;;;;;;;4973556;28;89913;-78
2023/10/02 14:27:51;;;;;;;;;;;;;;;;;;4975303;28;89484;-78
2023/10/02 14:30:17;;;;;;;;;;;;;;;;;;4972200;28;89547;-76
2023/10/02 14:32:52;;;;;;;;;;;;;;;;;;4973485;28;89641;-79
2023/10/02 14:35:18;;;;;;;;;;;;;;;;;;4971653;28;92389;-78
2023/10/02 14:37:44;;;;;;;;;;;;;;;;;;4975191;28;90073;-73
2023/10/02 14:40:19;;;;;;;;;;;;;;;;;;4971160;28;89621;-78
2023/10/02 14:42:44;;;;;;;;;;;;;;;;;;4976606;28;90873;-73
2023/10/02 14:45:11;;;;;;;;;;;;;;;;;;4979432;28;90453;-74
2023/10/02 14:47:36;;;;;;;;;;;;;;;;;;4984127;28;90126;-75
2023/10/02 14:50:02;;;;;;;;;;;;;;;;;;4977945;28;90834;-79
2023/10/02 14:52:28;;;;;;;;;;;;;;;;;;4980687;28;90961;-74
2023/10/02 14:54:54;;;;;;;;;;;;;;;;;;4980331;28;89782;-75
2023/10/02 14:57:21;;;;;;;;;;;;;;;;;;4980466;28;89792;-79
2023/10/02 14:59:46;;;;;;;;;;;;;;;;;;4986120;28;89933;-75
2023/10/02 15:02:12;;;;;;;;;;;;;;;;;;4976896;28;90304;-77
2023/10/02 15:04:43;;;;;;;;;;;;;;;;;;4979022;28;90293;-77
2023/10/02 15:07:09;;;;;;;;;;;;;;;;;;4982830;28;90755;-76
2023/10/02 15:09:34;;;;;;;;;;;;;;;;;;4987974;28;90194;-76
2023/10/02 15:11:59;;;;;;;;;;;;;;;;;;4983448;28;90028;-80
2023/10/02 15:14:26;;;;;;;;;;;;;;;;;;4983684;28;90912;-78
2023/10/02 15:16:51;;;;;;;;;;;;;;;;;;4984591;28;89222;-79
2023/10/02 15:19:16;;;;;;;;;;;;;;;;;;4983573;28;90060;-77
2023/10/02 15:21:42;;;;;;;;;;;;;;;;;;4977745;28;90416;-77
2023/10/02 15:24:07;;;;;;;;;;;;;;;;;;4978523;28;90107;-76
2023/10/02 15:26:33;;;;;;;;;;;;;;;;;;4982879;28;90090;-77
2023/10/02 15:28:58;;;;;;;;;;;;;;;;;;4981281;28;89579;-79
2023/10/02 15:31:23;;;;;;;;;;;;;;;;;;4981616;28;89368;-79
2023/10/02 15:33:49;;;;;;;;;;;;;;;;;;4982519;28;89571;-79
2023/10/02 15:36:15;;;;;;;;;;;;;;;;;;4977545;28;89634;-75
2023/10/02 15:38:41;;;;;;;;;;;;;;;;;;4983161;28;89471;-74
2023/10/02 15:41:10;;;;;;;;;;;;;;;;;;4977096;28;90065;-73
2023/10/02 15:43:37;;;;;;;;;;;;;;;;;;4978089;28;89453;-73
2023/10/02 15:46:03;;;;;;;;;;;;;;;;;;4978290;28;90499;-72
2023/10/02 15:48:28;;;;;;;;;;;;;;;;;;4972566;28;90643;-72
2023/10/02 15:50:53;;;;;;;;;;;;;;;;;;4979875;28;89711;-72
2023/10/02 15:53:19;;;;;;;;;;;;;;;;;;4978742;28;89507;-72
2023/10/02 15:55:44;;;;;;;;;;;;;;;;;;4974261;28;89910;-72
2023/10/02 15:58:12;;;;;;;;;;;;;;;;;;4972586;28;89650;-72
2023/10/02 16:00:38;;;;;;;;;;;;;;;;;;4979220;28;90857;-71
2023/10/02 16:03:03;;;;;;;;;;;;;;;;;;4976926;28;89338;-72
2023/10/02 16:05:29;;;;;;;;;;;;;;;;;;4974543;28;89441;-72
2023/10/02 16:07:56;;;;;;;;;;;;;;;;;;4973331;28;89925;-72
2023/10/02 16:10:22;;;;;;;;;;;;;;;;;;4977674;28;90811;-72
2023/10/02 16:13:05;;;;;;;;;;;;;;;;;;4972309;28;89645;-71
2023/10/02 16:15:34;;;;;;;;;;;;;;;;;;4975610;28;91322;-70
2023/10/02 16:18:00;;;;;;;;;;;;;;;;;;4977875;28;90851;-70
2023/10/02 16:20:26;;;;;;;;;;;;;;;;;;4976620;28;89787;-70
2023/10/02 16:22:53;;;;;;;;;;;;;;;;;;4972362;28;89818;-70
2023/10/02 16:25:19;;;;;;;;;;;;;;;;;;4975242;28;90724;-71
2023/10/02 16:27:45;;;;;;;;;;;;;;;;;;4975071;28;89163;-71
2023/10/02 16:30:11;;;;;;;;;;;;;;;;;;4976484;28;90328;-71
2023/10/02 16:32:45;;;;;;;;;;;;;;;;;;4974017;28;90654;-72
2023/10/02 16:35:11;;;;;;;;;;;;;;;;;;4981014;28;90285;-72
2023/10/02 16:37:40;;;;;;;;;;;;;;;;;;4975485;28;89717;-72
2023/10/02 16:40:07;;;;;;;;;;;;;;;;;;5001474;28;90861;-72
2023/10/02 16:42:32;;;;;;;;;;;;;;;;;;4976350;28;89715;-71
2023/10/02 16:44:57;;;;;;;;;;;;;;;;;;4981589;28;91334;-70
2023/10/02 16:47:23;;;;;;;;;;;;;;;;;;4983859;28;90595;-70
2023/10/02 16:49:48;;;;;;;;;;;;;;;;;;4979298;28;89415;-69
2023/10/02 16:52:14;;;;;;;;;;;;;;;;;;4978275;28;89476;-71
2023/10/02 16:54:40;;;;;;;;;;;;;;;;;;4979502;28;90029;-70
2023/10/02 16:57:05;;;;;;;;;;;;;;;;;;4980156;28;89683;-68
2023/10/02 16:59:31;;;;;;;;;;;;;;;;;;4981016;28;90398;-69
2023/10/02 17:01:58;;;;;;;;;;;;;;;;;;4975999;28;89436;-68
2023/10/02 17:04:26;;;;;;;;;;;;;;;;;;4975364;28;90572;-69
2023/10/02 17:06:51;;;;;;;;;;;;;;;;;;4978226;28;90215;-68
2023/10/02 17:09:16;;;;;;;;;;;;;;;;;;4978073;28;89512;-69
2023/10/02 17:11:41;;;;;;;;;;;;;;;;;;4973004;28;89538;-68
2023/10/02 17:14:07;;;;;;;;;;;;;;;;;;4977835;28;89241;-67
2023/10/02 17:16:34;;;;;;;;;;;;;;;;;;4977904;28;89812;-71
2023/10/02 17:18:59;;;;;;;;;;;;;;;;;;4981764;28;89617;-70
2023/10/02 17:21:29;;;;;;;;;;;;;;;;;;4973706;28;89055;-70
2023/10/02 17:23:54;;;;;;;;;;;;;;;;;;4978431;28;90824;-69
2023/10/02 17:26:19;;;;;;;;;;;;;;;;;;4980629;28;89963;-69
2023/10/02 17:28:45;;;;;;;;;;;;;;;;;;4974667;28;90328;-73
2023/10/02 17:31:12;;;;;;;;;;;;;;;;;;4977560;28;89531;-69
2023/10/02 17:33:38;;;;;;;;;;;;;;;;;;4977856;28;89199;-69
2023/10/02 17:36:03;;;;;;;;;;;;;;;;;;4976087;28;90288;-68
2023/10/02 17:38:29;;;;;;;;;;;;;;;;;;4975305;28;90498;-71
2023/10/02 17:40:55;;;;;;;;;;;;;;;;;;4981184;28;91113;-72
2023/10/02 17:43:20;;;;;;;;;;;;;;;;;;4979574;28;90875;-75
2023/10/02 17:45:45;;;;;;;;;;;;;;;;;;4973479;28;89452;-70
2023/10/02 17:48:11;;;;;;;;;;;;;;;;;;4970345;28;90765;-69
2023/10/02 17:50:36;;;;;;;;;;;;;;;;;;4978300;28;90457;-71
2023/10/02 17:53:01;;;;;;;;;;;;;;;;;;4977960;28;89337;-69